createdAt,value
2022-12-01T00:01:08.364Z,8.59
2022-12-01T00:03:35.279Z,8.57
2022-12-01T00:06:16.329Z,8.57
2022-12-01T00:09:03.080Z,8.55
2022-12-01T00:11:29.448Z,8.55
2022-12-01T00:13:55.799Z,8.54
2022-12-01T00:16:22.201Z,8.54
2022-12-01T00:18:53.017Z,8.54
2022-12-01T00:21:21.990Z,8.54
2022-12-01T00:23:51.197Z,8.52
2022-12-01T00:26:18.611Z,8.51
2022-12-01T00:28:49.268Z,8.51
2022-12-01T00:31:15.677Z,8.48
2022-12-01T00:33:42.117Z,8.46
2022-12-01T00:36:08.814Z,8.44
2022-12-01T00:38:35.760Z,8.41
2022-12-01T00:41:02.933Z,8.37
2022-12-01T00:43:29.524Z,8.33
2022-12-01T00:45:56.537Z,8.29
2022-12-01T00:48:23.708Z,8.26
2022-12-01T00:50:52.277Z,8.24
2022-12-01T00:53:19.168Z,8.23
2022-12-01T00:55:45.723Z,8.22
2022-12-01T00:58:12.034Z,8.20
2022-12-01T01:00:42.782Z,8.19
2022-12-01T01:03:10.246Z,8.18
2022-12-01T01:05:37.931Z,8.17
2022-12-01T01:08:09.207Z,8.17
2022-12-01T01:10:43.297Z,8.17
2022-12-01T01:13:10.393Z,8.15
2022-12-01T01:15:37.068Z,8.14
2022-12-01T01:18:04.261Z,8.14
2022-12-01T01:20:31.305Z,8.12
2022-12-01T01:22:58.175Z,8.11
2022-12-01T01:25:24.518Z,8.10
2022-12-01T01:27:51.553Z,8.08
2022-12-01T01:30:18.416Z,8.07
2022-12-01T01:32:45.052Z,8.04
2022-12-01T01:35:11.384Z,8.02
2022-12-01T01:37:37.841Z,8.01
2022-12-01T01:40:04.837Z,7.99
2022-12-01T01:42:31.286Z,7.98
2022-12-01T01:44:58.936Z,7.96
2022-12-01T01:47:33.166Z,7.94
2022-12-01T01:50:09.028Z,7.93
2022-12-01T01:52:36.548Z,7.95
2022-12-01T01:55:03.130Z,7.94
2022-12-01T01:57:33.204Z,7.93
2022-12-01T02:00:07.764Z,7.93
2022-12-01T02:02:40.454Z,7.93
2022-12-01T02:05:12.004Z,7.91
2022-12-01T02:07:40.055Z,7.91
2022-12-01T02:10:12.415Z,7.91
2022-12-01T02:13:17.149Z,7.90
2022-12-01T02:15:55.370Z,7.89
2022-12-01T02:18:38.774Z,7.86
2022-12-01T02:21:20.196Z,7.85
2022-12-01T02:23:49.501Z,7.82
2022-12-01T02:26:36.217Z,7.82
2022-12-01T02:29:33.221Z,7.82
2022-12-01T02:32:28.819Z,7.82
2022-12-01T02:35:02.908Z,7.81
2022-12-01T02:38:00.195Z,7.82
2022-12-01T02:40:53.156Z,7.84
2022-12-01T02:43:50.506Z,7.86
2022-12-01T02:46:39.188Z,7.88
2022-12-01T02:49:13.121Z,7.89
2022-12-01T02:51:44.682Z,7.90
2022-12-01T02:54:13.425Z,7.89
2022-12-01T02:56:39.927Z,7.89
2022-12-01T02:59:14.792Z,7.91
2022-12-01T03:01:50.887Z,7.93
2022-12-01T03:04:23.184Z,7.93
2022-12-01T03:07:15.532Z,7.95
2022-12-01T03:09:57.141Z,7.96
2022-12-01T03:12:35.441Z,7.97
2022-12-01T03:15:09.215Z,7.98
2022-12-01T03:17:42.711Z,7.96
2022-12-01T03:20:23.910Z,7.95
2022-12-01T03:22:55.440Z,7.94
2022-12-01T03:25:24.602Z,7.92
2022-12-01T03:28:20.589Z,7.91
2022-12-01T03:30:44.941Z,7.91
2022-12-01T03:33:20.412Z,7.93
2022-12-01T03:36:08.286Z,7.94
2022-12-01T03:38:36.859Z,7.93
2022-12-01T03:41:13.222Z,7.93
2022-12-01T03:43:45.230Z,7.93
2022-12-01T03:46:21.922Z,7.93
2022-12-01T03:48:48.430Z,7.91
2022-12-01T03:51:31.500Z,7.91
2022-12-01T03:54:13.094Z,7.91
2022-12-01T03:56:46.583Z,7.92
2022-12-01T03:59:16.226Z,7.91
2022-12-01T04:01:42.751Z,7.90
2022-12-01T04:04:11.777Z,7.91
2022-12-01T04:06:40.760Z,7.92
2022-12-01T04:09:07.105Z,7.92
2022-12-01T04:11:52.439Z,7.93
2022-12-01T04:14:18.836Z,7.94
2022-12-01T04:16:45.134Z,7.94
2022-12-01T04:19:11.638Z,7.93
2022-12-01T04:21:38.177Z,7.91
2022-12-01T04:24:04.678Z,7.91
2022-12-01T04:26:34.038Z,7.89
2022-12-01T04:29:02.023Z,7.88
2022-12-01T04:31:28.686Z,7.86
2022-12-01T04:33:56.168Z,7.85
2022-12-01T04:36:24.052Z,7.84
2022-12-01T04:38:50.896Z,7.82
2022-12-01T04:41:19.553Z,7.83
2022-12-01T04:43:46.010Z,7.82
2022-12-01T04:46:12.509Z,7.80
2022-12-01T04:48:39.455Z,7.79
2022-12-01T04:51:07.870Z,7.80
2022-12-01T04:53:35.385Z,7.79
2022-12-01T04:56:02.385Z,7.80
2022-12-01T04:58:29.709Z,7.80
2022-12-01T05:01:02.901Z,7.81
2022-12-01T05:03:29.344Z,7.80
2022-12-01T05:06:16.265Z,7.81
2022-12-01T05:08:42.699Z,7.81
2022-12-01T05:11:12.111Z,7.82
2022-12-01T05:13:43.705Z,7.83
2022-12-01T05:16:15.883Z,7.83
2022-12-01T05:18:42.739Z,7.82
2022-12-01T05:21:10.656Z,7.81
2022-12-01T05:23:38.459Z,7.78
2022-12-01T05:26:06.836Z,7.76
2022-12-01T05:28:33.319Z,7.72
2022-12-01T05:30:59.759Z,7.71
2022-12-01T05:33:26.996Z,7.67
2022-12-01T05:35:53.686Z,7.65
2022-12-01T05:38:20.655Z,7.63
2022-12-01T05:40:54.883Z,7.63
2022-12-01T05:43:28.361Z,7.61
2022-12-01T05:45:55.758Z,7.59
2022-12-01T05:48:22.251Z,7.58
2022-12-01T05:50:48.571Z,7.57
2022-12-01T05:53:15.608Z,7.56
2022-12-01T05:55:42.025Z,7.55
2022-12-01T05:58:09.132Z,7.54
2022-12-01T06:00:38.518Z,7.55
2022-12-01T06:03:08.672Z,7.56
2022-12-01T06:05:34.982Z,7.56
2022-12-01T06:08:01.615Z,7.56
2022-12-01T06:10:28.037Z,7.56
2022-12-01T06:12:54.406Z,7.55
2022-12-01T06:15:20.755Z,7.54
2022-12-01T06:17:47.284Z,7.55
2022-12-01T06:20:13.712Z,7.55
2022-12-01T06:22:40.136Z,7.57
2022-12-01T06:25:07.174Z,7.58
2022-12-01T06:27:33.493Z,7.59
2022-12-01T06:29:59.805Z,7.60
2022-12-01T06:32:26.107Z,7.61
2022-12-01T06:34:52.483Z,7.60
2022-12-01T06:37:18.861Z,7.62
2022-12-01T06:39:45.221Z,7.61
2022-12-01T06:42:11.981Z,7.62
2022-12-01T06:44:38.782Z,7.64
2022-12-01T06:47:05.184Z,7.65
2022-12-01T06:49:31.558Z,7.66
2022-12-01T06:52:00.711Z,7.68
2022-12-01T06:54:27.329Z,7.70
2022-12-01T06:56:53.694Z,7.71
2022-12-01T06:59:20.134Z,7.70
2022-12-01T07:01:46.827Z,7.71
2022-12-01T07:04:13.501Z,7.72
2022-12-01T07:06:39.786Z,7.72
2022-12-01T07:09:06.105Z,7.74
2022-12-01T07:11:32.503Z,7.76
2022-12-01T07:13:58.869Z,7.78
2022-12-01T07:16:25.443Z,7.82
2022-12-01T07:18:52.531Z,7.83
2022-12-01T07:21:18.845Z,7.86
2022-12-01T07:23:45.199Z,7.86
2022-12-01T07:26:17.150Z,7.86
2022-12-01T07:28:44.736Z,7.84
2022-12-01T07:31:16.701Z,7.83
2022-12-01T07:33:43.159Z,7.84
2022-12-01T07:36:11.547Z,7.84
2022-12-01T07:38:38.904Z,7.84
2022-12-01T07:41:07.658Z,7.82
2022-12-01T07:43:34.625Z,7.82
2022-12-01T07:46:27.800Z,7.82
2022-12-01T07:48:55.446Z,7.81
2022-12-01T07:51:23.550Z,7.79
2022-12-01T07:53:51.189Z,7.77
2022-12-01T07:56:18.839Z,7.76
2022-12-01T07:58:45.348Z,7.75
2022-12-01T08:01:15.009Z,7.77
2022-12-01T08:03:42.294Z,7.76
2022-12-01T08:06:09.625Z,7.76
2022-12-01T08:08:37.859Z,7.76
2022-12-01T08:11:07.890Z,7.75
2022-12-01T08:13:34.645Z,7.75
2022-12-01T08:16:04.684Z,7.76
2022-12-01T08:18:31.115Z,7.75
2022-12-01T08:21:00.282Z,7.76
2022-12-01T08:23:26.644Z,7.77
2022-12-01T08:25:53.050Z,7.77
2022-12-01T08:28:20.163Z,7.77
2022-12-01T08:30:47.183Z,7.77
2022-12-01T08:33:13.576Z,7.77
2022-12-01T08:35:39.909Z,7.78
2022-12-01T08:38:06.258Z,7.79
2022-12-01T08:40:32.593Z,7.80
2022-12-01T08:42:58.938Z,7.81
2022-12-01T08:45:25.272Z,7.83
2022-12-01T08:47:53.234Z,7.85
2022-12-01T08:50:19.577Z,7.86
2022-12-01T08:52:46.074Z,7.86
2022-12-01T08:55:24.433Z,7.87
2022-12-01T08:57:50.743Z,7.89
2022-12-01T09:00:17.240Z,7.89
2022-12-01T09:02:43.595Z,7.90
2022-12-01T09:05:10.128Z,7.91
2022-12-01T09:07:36.612Z,7.93
2022-12-01T09:10:03.680Z,7.94
2022-12-01T09:12:30.169Z,7.96
2022-12-01T09:14:56.602Z,7.98
2022-12-01T09:17:23.643Z,7.99
2022-12-01T09:19:50.208Z,8.01
2022-12-01T09:22:16.833Z,8.04
2022-12-01T09:24:43.180Z,8.07
2022-12-01T09:27:10.037Z,8.10
2022-12-01T09:29:36.486Z,8.11
2022-12-01T09:32:03.029Z,8.14
2022-12-01T09:34:29.363Z,8.16
2022-12-01T09:36:57.594Z,8.19
2022-12-01T09:39:25.013Z,8.20
2022-12-01T09:41:59.797Z,8.21
2022-12-01T09:44:50.709Z,8.22
2022-12-01T09:47:26.198Z,8.22
2022-12-01T09:50:13.151Z,8.23
2022-12-01T09:53:08.121Z,8.26
2022-12-01T09:55:35.345Z,8.26
2022-12-01T09:58:04.128Z,8.26
2022-12-01T10:00:34.188Z,8.27
2022-12-01T10:03:13.935Z,8.29
2022-12-01T10:06:25.946Z,8.29
2022-12-01T10:08:46.983Z,8.31
2022-12-01T10:11:24.835Z,8.30
2022-12-01T10:13:51.159Z,8.30
2022-12-01T10:16:26.458Z,8.30
2022-12-01T10:19:15.385Z,8.31
2022-12-01T10:22:07.126Z,8.32
2022-12-01T10:24:47.745Z,8.30
2022-12-01T10:27:32.281Z,8.29
2022-12-01T10:30:04.084Z,8.28
2022-12-01T10:32:51.071Z,8.28
2022-12-01T10:35:19.480Z,8.29
2022-12-01T10:37:47.292Z,8.30
2022-12-01T10:40:15.746Z,8.34
2022-12-01T10:42:47.894Z,8.38
2022-12-01T10:45:16.194Z,8.41
2022-12-01T10:48:18.129Z,8.42
2022-12-01T10:50:47.370Z,8.44
2022-12-01T10:53:22.883Z,8.45
2022-12-01T10:56:04.536Z,8.46
2022-12-01T10:58:34.418Z,8.47
2022-12-01T11:01:05.507Z,8.49
2022-12-01T11:03:34.721Z,8.50
2022-12-01T11:06:03.155Z,8.53
2022-12-01T11:08:46.714Z,8.57
2022-12-01T11:11:36.671Z,8.59
2022-12-01T11:14:07.188Z,8.61
2022-12-01T11:16:42.882Z,8.63
2022-12-01T11:19:20.547Z,8.68
2022-12-01T11:21:54.726Z,8.71
2022-12-01T11:24:43.924Z,8.72
2022-12-01T11:27:17.478Z,8.73
2022-12-01T11:29:46.262Z,8.73
2022-12-01T11:32:29.054Z,8.74
2022-12-01T11:34:59.775Z,8.71
2022-12-01T11:37:50.487Z,8.68
2022-12-01T11:40:30.586Z,8.64
2022-12-01T11:43:00.635Z,8.59
2022-12-01T11:45:32.248Z,8.57
2022-12-01T11:48:04.359Z,8.54
2022-12-01T11:50:34.046Z,8.53
2022-12-01T11:53:01.953Z,8.54
2022-12-01T11:55:30.768Z,8.55
2022-12-01T11:58:14.815Z,8.58
2022-12-01T12:00:54.865Z,8.62
2022-12-01T12:03:35.115Z,8.66
2022-12-01T12:06:18.227Z,8.69
2022-12-01T12:09:08.189Z,8.71
2022-12-01T12:11:42.113Z,8.72
2022-12-01T12:14:17.657Z,8.71
2022-12-01T12:16:58.535Z,8.71
2022-12-01T12:20:07.106Z,8.70
2022-12-01T12:23:10.588Z,8.67
2022-12-01T12:26:03.360Z,8.66
2022-12-01T12:28:54.865Z,8.66
2022-12-01T12:31:52.123Z,8.65
2022-12-01T12:34:50.851Z,8.65
2022-12-01T12:37:40.016Z,8.64
2022-12-01T12:40:08.986Z,8.63
2022-12-01T12:42:57.131Z,8.61
2022-12-01T12:45:50.390Z,8.57
2022-12-01T12:48:57.271Z,8.57
2022-12-01T12:51:38.266Z,8.57
2022-12-01T12:54:13.649Z,8.59
2022-12-01T12:56:46.037Z,8.60
2022-12-01T12:59:24.350Z,8.62
2022-12-01T13:02:09.493Z,8.61
2022-12-01T13:04:59.532Z,8.64
2022-12-01T13:07:37.222Z,8.64
2022-12-01T13:10:15.956Z,8.64
2022-12-01T13:12:51.219Z,8.62
2022-12-01T13:15:20.489Z,8.60
2022-12-01T13:17:58.353Z,8.58
2022-12-01T13:20:27.757Z,8.57
2022-12-01T13:22:58.570Z,8.55
2022-12-01T13:25:34.273Z,8.55
2022-12-01T13:28:03.134Z,8.54
2022-12-01T13:30:29.680Z,8.52
2022-12-01T13:33:02.485Z,8.52
2022-12-01T13:35:31.641Z,8.54
2022-12-01T13:38:30.183Z,8.55
2022-12-01T13:41:24.322Z,8.58
2022-12-01T13:44:04.168Z,8.60
2022-12-01T13:46:32.337Z,8.61
2022-12-01T13:49:03.054Z,8.62
2022-12-01T13:52:08.258Z,8.64
2022-12-01T13:54:36.802Z,8.64
2022-12-01T13:57:10.642Z,8.63
2022-12-01T13:59:59.375Z,8.62
2022-12-01T14:02:34.601Z,8.60
2022-12-01T14:05:23.032Z,8.57
2022-12-01T14:07:53.919Z,8.54
2022-12-01T14:10:27.272Z,8.52
2022-12-01T14:12:57.593Z,8.48
2022-12-01T14:15:30.057Z,8.47
2022-12-01T14:18:18.194Z,8.44
2022-12-01T14:20:46.643Z,8.40
2022-12-01T14:23:33.801Z,8.36
2022-12-01T14:26:23.243Z,8.34
2022-12-01T14:28:55.835Z,8.31
2022-12-01T14:31:23.763Z,8.30
2022-12-01T14:34:03.113Z,8.29
2022-12-01T14:36:54.468Z,8.27
2022-12-01T14:39:30.839Z,8.28
2022-12-01T14:42:01.884Z,8.25
2022-12-01T14:44:37.832Z,8.25
2022-12-01T14:47:10.345Z,8.24
2022-12-01T14:49:47.258Z,8.22
2022-12-01T14:52:23.432Z,8.18
2022-12-01T14:54:51.210Z,8.14
2022-12-01T14:57:23.585Z,8.08
2022-12-01T15:00:10.966Z,8.01
2022-12-01T15:02:56.998Z,7.94
2022-12-01T15:05:27.261Z,7.88
2022-12-01T15:08:40.342Z,7.82
2022-12-01T15:11:06.411Z,7.79
2022-12-01T15:13:53.210Z,7.78
2022-12-01T15:16:22.943Z,7.77
2022-12-01T15:18:49.935Z,7.75
2022-12-01T15:21:20.753Z,7.75
2022-12-01T15:24:04.757Z,7.77
2022-12-01T15:26:36.636Z,7.76
2022-12-01T15:29:16.133Z,7.77
2022-12-01T15:31:46.828Z,7.77
2022-12-01T15:34:36.328Z,7.75
2022-12-01T15:37:05.318Z,7.73
2022-12-01T15:39:35.367Z,7.70
2022-12-01T15:42:03.047Z,7.67
2022-12-01T15:44:37.256Z,7.65
2022-12-01T15:47:41.044Z,7.64
2022-12-01T15:50:46.147Z,7.65
2022-12-01T15:53:32.765Z,7.64
2022-12-01T15:56:02.124Z,7.64
2022-12-01T15:58:31.523Z,7.63
2022-12-01T16:01:29.693Z,7.64
2022-12-01T16:04:04.242Z,7.65
2022-12-01T16:06:34.197Z,7.66
2022-12-01T16:09:03.774Z,7.65
2022-12-01T16:11:30.768Z,7.67
2022-12-01T16:14:01.800Z,7.70
2022-12-01T16:16:54.590Z,7.72
2022-12-01T16:19:26.310Z,7.71
2022-12-01T16:21:59.813Z,7.70
2022-12-01T16:24:30.603Z,7.68
2022-12-01T16:27:04.184Z,7.66
2022-12-01T16:29:43.878Z,7.65
2022-12-01T16:32:32.222Z,7.62
2022-12-01T16:34:59.161Z,7.61
2022-12-01T16:37:26.835Z,7.59
2022-12-01T16:39:53.281Z,7.58
2022-12-01T16:42:21.317Z,7.57
2022-12-01T16:44:48.845Z,7.57
2022-12-01T16:47:21.838Z,7.57
2022-12-01T16:49:48.737Z,7.56
2022-12-01T16:52:43.140Z,7.54
2022-12-01T16:55:02.001Z,7.51
2022-12-01T16:57:28.334Z,7.48
2022-12-01T16:59:54.740Z,7.45
2022-12-01T17:02:21.153Z,7.43
2022-12-01T17:04:47.813Z,7.42
2022-12-01T17:07:14.383Z,7.40
2022-12-01T17:09:40.712Z,7.37
2022-12-01T17:12:07.243Z,7.33
2022-12-01T17:14:33.642Z,7.30
2022-12-01T17:17:02.082Z,7.26
2022-12-01T17:19:28.399Z,7.21
2022-12-01T17:21:58.297Z,7.17
2022-12-01T17:24:25.803Z,7.13
2022-12-01T17:26:52.167Z,7.10
2022-12-01T17:29:19.728Z,7.04
2022-12-01T17:31:47.186Z,7.00
2022-12-01T17:34:13.564Z,6.97
2022-12-01T17:36:41.116Z,6.94
2022-12-01T17:39:07.504Z,6.90
2022-12-01T17:41:35.716Z,6.86
2022-12-01T17:44:04.119Z,6.84
2022-12-01T17:46:31.421Z,6.80
2022-12-01T17:48:59.216Z,6.78
2022-12-01T17:51:25.643Z,6.76
2022-12-01T17:53:53.710Z,6.72
2022-12-01T17:56:20.058Z,6.69
2022-12-01T17:58:49.000Z,6.64
2022-12-01T18:01:17.439Z,6.60
2022-12-01T18:03:44.582Z,6.56
2022-12-01T18:06:12.068Z,6.53
2022-12-01T18:08:39.760Z,6.50
2022-12-01T18:11:09.821Z,6.48
2022-12-01T18:13:41.835Z,6.48
2022-12-01T18:16:10.326Z,6.46
2022-12-01T18:18:37.487Z,6.48
2022-12-01T18:21:12.863Z,6.50
2022-12-01T18:23:39.576Z,6.53
2022-12-01T18:26:15.214Z,6.55
2022-12-01T18:28:42.702Z,6.57
2022-12-01T18:31:12.033Z,6.60
2022-12-01T18:33:40.303Z,6.64
2022-12-01T18:36:16.677Z,6.66
2022-12-01T18:38:43.675Z,6.67
2022-12-01T18:41:10.045Z,6.68
2022-12-01T18:43:36.580Z,6.69
2022-12-01T18:46:04.606Z,6.71
2022-12-01T18:48:31.122Z,6.72
2022-12-01T18:51:04.444Z,6.73
2022-12-01T18:53:31.406Z,6.75
2022-12-01T18:56:03.220Z,6.76
2022-12-01T18:58:30.087Z,6.76
2022-12-01T19:00:56.756Z,6.77
2022-12-01T19:03:23.306Z,6.77
2022-12-01T19:05:49.677Z,6.77
2022-12-01T19:08:16.219Z,6.77
2022-12-01T19:10:42.646Z,6.78
2022-12-01T19:13:09.051Z,6.78
2022-12-01T19:15:38.501Z,6.79
2022-12-01T19:18:04.968Z,6.78
2022-12-01T19:20:31.305Z,6.77
2022-12-01T19:22:57.812Z,6.77
2022-12-01T19:25:24.202Z,6.77
2022-12-01T19:27:53.071Z,6.77
2022-12-01T19:30:19.542Z,6.77
2022-12-01T19:32:46.091Z,6.77
2022-12-01T19:35:12.469Z,6.77
2022-12-01T19:37:38.830Z,6.76
2022-12-01T19:40:05.774Z,6.74
2022-12-01T19:42:32.176Z,6.73
2022-12-01T19:44:58.931Z,6.71
2022-12-01T19:47:25.245Z,6.69
2022-12-01T19:49:51.576Z,6.66
2022-12-01T19:52:17.886Z,6.63
2022-12-01T19:54:44.190Z,6.59
2022-12-01T19:57:10.682Z,6.58
2022-12-01T19:59:37.034Z,6.56
2022-12-01T20:02:03.442Z,6.56
2022-12-01T20:04:29.990Z,6.55
2022-12-01T20:06:56.332Z,6.55
2022-12-01T20:09:22.702Z,6.56
2022-12-01T20:11:49.295Z,6.55
2022-12-01T20:14:15.795Z,6.56
2022-12-01T20:16:42.311Z,6.55
2022-12-01T20:19:08.858Z,6.58
2022-12-01T20:21:42.982Z,6.59
2022-12-01T20:24:15.136Z,6.61
2022-12-01T20:26:45.282Z,6.62
2022-12-01T20:29:14.729Z,6.60
2022-12-01T20:31:42.219Z,6.60
2022-12-01T20:34:13.886Z,6.57
2022-12-01T20:36:40.878Z,6.56
2022-12-01T20:39:08.294Z,6.53
2022-12-01T20:41:35.479Z,6.51
2022-12-01T20:44:07.015Z,6.48
2022-12-01T20:46:34.410Z,6.49
2022-12-01T20:49:00.890Z,6.48
2022-12-01T20:51:27.725Z,6.50
2022-12-01T20:54:19.655Z,6.51
2022-12-01T20:56:40.344Z,6.57
2022-12-01T20:59:06.648Z,6.60
2022-12-01T21:01:33.019Z,6.63
2022-12-01T21:03:59.474Z,6.60
2022-12-01T21:06:25.924Z,6.57
2022-12-01T21:08:52.274Z,6.52
2022-12-01T21:11:43.908Z,6.51
2022-12-01T21:14:21.994Z,6.48
2022-12-01T21:16:49.142Z,6.46
2022-12-01T21:19:25.836Z,6.46
2022-12-01T21:21:52.237Z,6.46
2022-12-01T21:24:22.108Z,6.47
2022-12-01T21:26:54.525Z,6.48
2022-12-01T21:29:24.963Z,6.48
2022-12-01T21:31:53.518Z,6.48
2022-12-01T21:34:25.457Z,6.48
2022-12-01T21:36:56.067Z,6.47
2022-12-01T21:39:23.948Z,6.45
2022-12-01T21:41:54.729Z,6.45
2022-12-01T21:44:22.476Z,6.43
2022-12-01T21:46:53.317Z,6.43
2022-12-01T21:49:21.858Z,6.42
2022-12-01T21:51:51.809Z,6.43
2022-12-01T21:54:20.679Z,6.42
2022-12-01T21:56:48.643Z,6.40
2022-12-01T21:59:22.906Z,6.38
2022-12-01T22:01:54.084Z,6.38
2022-12-01T22:04:26.071Z,6.36
2022-12-01T22:06:54.470Z,6.36
2022-12-01T22:09:33.051Z,6.36
2022-12-01T22:12:22.825Z,6.36
2022-12-01T22:14:50.095Z,6.36
2022-12-01T22:17:20.526Z,6.36
2022-12-01T22:19:55.194Z,6.36
2022-12-01T22:22:27.073Z,6.36
2022-12-01T22:25:25.207Z,6.37
2022-12-01T22:27:51.932Z,6.37
2022-12-01T22:30:23.430Z,6.36
2022-12-01T22:33:01.046Z,6.36
2022-12-01T22:35:42.666Z,6.38
2022-12-01T22:38:09.000Z,6.38
2022-12-01T22:40:38.224Z,6.37
2022-12-01T22:43:26.533Z,6.37
2022-12-01T22:46:02.760Z,6.34
2022-12-01T22:48:46.621Z,6.35
2022-12-01T22:51:12.906Z,6.33
2022-12-01T22:53:40.510Z,6.32
2022-12-01T22:56:40.151Z,6.30
2022-12-01T22:59:14.889Z,6.29
2022-12-01T23:01:52.428Z,6.28
2022-12-01T23:04:38.454Z,6.28
2022-12-01T23:07:27.453Z,6.27
2022-12-01T23:09:56.655Z,6.26
2022-12-01T23:12:25.922Z,6.24
2022-12-01T23:14:55.190Z,6.24
2022-12-01T23:17:26.009Z,6.24
2022-12-01T23:20:02.019Z,6.22
2022-12-01T23:22:28.333Z,6.21
2022-12-01T23:24:54.709Z,6.22
2022-12-01T23:27:21.060Z,6.22
2022-12-01T23:29:47.501Z,6.22
2022-12-01T23:32:13.837Z,6.23
2022-12-01T23:34:40.202Z,6.23
2022-12-01T23:37:26.707Z,6.24
2022-12-01T23:39:53.053Z,6.24
2022-12-01T23:42:19.665Z,6.24
2022-12-01T23:44:45.989Z,6.24
2022-12-01T23:47:28.722Z,6.24
2022-12-01T23:50:01.453Z,6.22
2022-12-01T23:52:34.977Z,6.20
2022-12-01T23:55:07.485Z,6.16
2022-12-01T23:57:35.828Z,6.13
